Time;durP1;ratioP1;P1;durP2;ratioP2;P2;SDS_P1;SDS_P2;PMS_P1;PMS_P2;Temp;Humidity;BMP_temperature;BMP_pressure;BME280_temperature;BME280_humidity;BME280_pressure;Samples;Min_cycle;Max_cycle;Signal;HPM_P1;HPM_P2
2023/08/19 00:01:12;;;;;;;5.38;3.30;;;;;;;;;;4982941;28;20088;-64
2023/08/19 00:03:40;;;;;;;4.47;3.30;;;;;;;;;;4980737;28;20105;-65
2023/08/19 00:06:11;;;;;;;5.55;3.25;;;;;;;;;;4979438;28;20138;-64
2023/08/19 00:08:39;;;;;;;5.55;3.47;;;;;;;;;;4983718;28;20042;-65
2023/08/19 00:11:08;;;;;;;4.60;3.20;;;;;;;;;;4982691;28;20434;-64
2023/08/19 00:13:36;;;;;;;6.18;3.13;;;;;;;;;;4979941;28;20504;-63
2023/08/19 00:16:05;;;;;;;5.75;3.22;;;;;;;;;;4977694;28;20153;-66
2023/08/19 00:18:33;;;;;;;9.45;3.25;;;;;;;;;;4980645;28;20077;-65
2023/08/19 00:21:03;;;;;;;4.65;2.95;;;;;;;;;;4981969;28;20070;-64
2023/08/19 00:23:34;;;;;;;5.82;3.40;;;;;;;;;;4982255;28;20105;-63
2023/08/19 00:26:02;;;;;;;4.43;3.25;;;;;;;;;;4978021;28;20439;-64
2023/08/19 00:28:31;;;;;;;6.25;2.90;;;;;;;;;;4982060;28;20081;-63
2023/08/19 00:31:00;;;;;;;6.25;3.83;;;;;;;;;;4978706;28;20066;-63
2023/08/19 00:33:30;;;;;;;6.63;3.53;;;;;;;;;;4982731;28;20046;-64
2023/08/19 00:35:59;;;;;;;4.57;3.25;;;;;;;;;;4980354;28;20125;-63
2023/08/19 00:38:28;;;;;;;5.60;3.08;;;;;;;;;;4979951;28;20057;-64
2023/08/19 00:40:58;;;;;;;6.20;3.00;;;;;;;;;;4983092;28;20323;-64
2023/08/19 00:43:26;;;;;;;5.60;3.30;;;;;;;;;;4976342;28;20057;-66
2023/08/19 00:45:55;;;;;;;4.63;3.42;;;;;;;;;;4980313;28;20120;-65
2023/08/19 00:48:25;;;;;;;6.10;3.25;;;;;;;;;;4983947;28;20045;-64
2023/08/19 00:50:53;;;;;;;4.38;3.28;;;;;;;;;;4981956;28;20066;-64
2023/08/19 00:53:22;;;;;;;6.15;3.35;;;;;;;;;;4986368;28;20307;-63
2023/08/19 00:55:50;;;;;;;5.13;3.35;;;;;;;;;;4984760;28;20050;-64
2023/08/19 00:58:20;;;;;;;5.28;3.33;;;;;;;;;;4985488;28;20428;-64
2023/08/19 01:00:49;;;;;;;7.82;3.10;;;;;;;;;;4986381;28;20054;-64
2023/08/19 01:03:17;;;;;;;5.00;3.40;;;;;;;;;;5006867;23;20081;-69
2023/08/19 01:05:54;;;;;;;4.20;3.10;;;;;;;;;;4993021;28;20487;-69
2023/08/19 01:08:25;;;;;;;5.47;3.08;;;;;;;;;;5003467;28;20045;-68
2023/08/19 01:10:58;;;;;;;7.20;3.58;;;;;;;;;;5006817;28;20054;-69
2023/08/19 01:13:30;;;;;;;4.95;3.00;;;;;;;;;;5002449;28;20073;-71
2023/08/19 01:16:02;;;;;;;7.88;3.40;;;;;;;;;;5000366;28;20042;-69
2023/08/19 01:18:31;;;;;;;4.93;3.40;;;;;;;;;;5005778;28;20081;-68
2023/08/19 01:21:00;;;;;;;6.82;3.33;;;;;;;;;;5003839;28;20092;-69
2023/08/19 01:23:31;;;;;;;7.50;2.83;;;;;;;;;;5005478;28;20038;-69
2023/08/19 01:26:02;;;;;;;5.85;3.35;;;;;;;;;;5002020;28;20058;-68
2023/08/19 01:28:30;;;;;;;4.55;2.80;;;;;;;;;;4999302;28;20168;-68
2023/08/19 01:30:59;;;;;;;5.38;3.28;;;;;;;;;;5004890;28;20034;-68
2023/08/19 01:33:27;;;;;;;6.28;3.42;;;;;;;;;;5002630;28;20077;-68
2023/08/19 01:36:01;;;;;;;6.82;3.10;;;;;;;;;;5002541;28;20147;-68
2023/08/19 01:38:37;;;;;;;6.03;2.85;;;;;;;;;;5002563;28;20046;-69
2023/08/19 01:41:07;;;;;;;6.32;3.28;;;;;;;;;;5003128;28;20050;-68
2023/08/19 01:43:35;;;;;;;5.97;2.85;;;;;;;;;;5004327;28;20065;-68
2023/08/19 01:46:04;;;;;;;7.05;3.08;;;;;;;;;;5000098;28;20139;-69
2023/08/19 01:48:32;;;;;;;7.68;3.03;;;;;;;;;;5004106;28;20050;-71
2023/08/19 01:51:01;;;;;;;5.53;3.40;;;;;;;;;;5002891;28;20391;-69
2023/08/19 01:53:29;;;;;;;8.90;3.70;;;;;;;;;;5017586;28;20049;-68
2023/08/19 01:55:58;;;;;;;7.45;3.15;;;;;;;;;;5023321;28;20046;-69
2023/08/19 01:58:27;;;;;;;5.10;3.50;;;;;;;;;;5021649;28;20085;-70
2023/08/19 02:00:56;;;;;;;5.35;3.35;;;;;;;;;;5022642;28;20448;-68
2023/08/19 02:03:24;;;;;;;5.90;3.55;;;;;;;;;;5022993;28;20103;-69
2023/08/19 02:05:52;;;;;;;5.43;3.50;;;;;;;;;;5021818;28;20357;-71
2023/08/19 02:08:21;;;;;;;6.38;3.50;;;;;;;;;;5023622;28;20337;-68
2023/08/19 02:10:49;;;;;;;6.97;3.30;;;;;;;;;;5020640;28;20453;-69
2023/08/19 02:13:18;;;;;;;6.05;3.35;;;;;;;;;;5018866;28;20081;-68
2023/08/19 02:15:47;;;;;;;6.65;3.60;;;;;;;;;;5022774;28;20049;-69
2023/08/19 02:18:16;;;;;;;5.35;3.10;;;;;;;;;;5023793;28;20053;-68
2023/08/19 02:20:47;;;;;;;5.55;3.15;;;;;;;;;;5020107;28;20045;-68
2023/08/19 02:23:16;;;;;;;5.82;3.53;;;;;;;;;;5023391;28;20541;-69
2023/08/19 02:25:44;;;;;;;5.10;3.00;;;;;;;;;;5020298;28;20095;-71
2023/08/19 02:28:13;;;;;;;5.18;3.45;;;;;;;;;;5022303;28;20172;-68
2023/08/19 02:30:41;;;;;;;5.10;3.45;;;;;;;;;;5024901;28;20113;-69
2023/08/19 02:33:11;;;;;;;8.10;3.28;;;;;;;;;;5022172;28;20045;-68
2023/08/19 02:35:39;;;;;;;7.65;3.33;;;;;;;;;;5020652;28;20502;-70
2023/08/19 02:38:07;;;;;;;5.85;3.15;;;;;;;;;;5021591;28;20365;-68
2023/08/19 02:40:36;;;;;;;5.15;2.97;;;;;;;;;;5015343;28;20138;-69
2023/08/19 02:43:04;;;;;;;6.25;3.08;;;;;;;;;;5021893;28;20041;-68
2023/08/19 02:45:35;;;;;;;4.82;3.35;;;;;;;;;;5020481;28;20123;-71
2023/08/19 02:48:04;;;;;;;6.20;3.47;;;;;;;;;;5024101;28;20107;-68
2023/08/19 02:50:34;;;;;;;6.70;3.35;;;;;;;;;;5022024;28;20054;-68
2023/08/19 02:53:02;;;;;;;6.88;3.60;;;;;;;;;;5022485;28;20099;-69
2023/08/19 02:55:30;;;;;;;7.45;3.40;;;;;;;;;;5022186;28;20045;-68
2023/08/19 02:57:59;;;;;;;5.97;3.30;;;;;;;;;;5020829;28;20485;-68
2023/08/19 03:00:28;;;;;;;5.00;3.33;;;;;;;;;;5018651;28;20041;-69
2023/08/19 03:02:56;;;;;;;6.30;3.20;;;;;;;;;;5022944;28;20420;-68
2023/08/19 03:05:25;;;;;;;5.18;2.83;;;;;;;;;;5021116;28;20053;-69
2023/08/19 03:07:55;;;;;;;8.10;3.20;;;;;;;;;;5020682;28;20490;-68
2023/08/19 03:10:23;;;;;;;6.82;3.92;;;;;;;;;;5021141;28;20041;-70
2023/08/19 03:12:54;;;;;;;4.72;3.42;;;;;;;;;;5023337;28;20057;-68
2023/08/19 03:15:22;;;;;;;5.88;3.25;;;;;;;;;;5019052;28;20984;-67
2023/08/19 03:17:50;;;;;;;4.35;2.70;;;;;;;;;;5023020;28;20065;-69
2023/08/19 03:20:19;;;;;;;4.35;3.17;;;;;;;;;;5018993;28;20046;-68
2023/08/19 03:22:47;;;;;;;5.97;2.78;;;;;;;;;;5023003;28;20518;-69
2023/08/19 03:25:17;;;;;;;3.55;2.70;;;;;;;;;;5020491;28;20091;-68
2023/08/19 03:27:46;;;;;;;8.13;3.00;;;;;;;;;;5022062;28;20052;-69
2023/08/19 03:30:14;;;;;;;5.38;2.90;;;;;;;;;;5020097;28;20041;-69
2023/08/19 03:32:42;;;;;;;4.13;2.83;;;;;;;;;;5019916;28;20048;-70
2023/08/19 03:35:11;;;;;;;5.30;2.92;;;;;;;;;;5015712;28;20049;-68
2023/08/19 03:37:39;;;;;;;7.25;3.20;;;;;;;;;;5022159;28;20037;-69
2023/08/19 03:40:09;;;;;;;6.25;3.58;;;;;;;;;;5022923;28;20068;-69
2023/08/19 03:42:38;;;;;;;5.32;2.92;;;;;;;;;;5022169;28;20056;-68
2023/08/19 03:45:07;;;;;;;3.42;2.90;;;;;;;;;;5018620;28;20125;-70
2023/08/19 03:47:36;;;;;;;7.47;2.88;;;;;;;;;;5018683;28;20077;-73
2023/08/19 03:50:04;;;;;;;6.82;3.10;;;;;;;;;;5021260;28;20609;-70
2023/08/19 03:52:33;;;;;;;7.20;2.92;;;;;;;;;;5021675;28;20077;-70
2023/08/19 03:55:01;;;;;;;4.32;3.10;;;;;;;;;;5019203;28;20056;-68
2023/08/19 03:57:30;;;;;;;6.75;3.25;;;;;;;;;;5017185;28;20168;-69
2023/08/19 04:00:00;;;;;;;5.47;2.78;;;;;;;;;;5019994;28;20076;-68
2023/08/19 04:02:28;;;;;;;6.32;2.95;;;;;;;;;;5021674;28;20064;-69
2023/08/19 04:04:58;;;;;;;4.57;2.90;;;;;;;;;;5020775;28;20045;-68
2023/08/19 04:07:26;;;;;;;6.90;2.90;;;;;;;;;;5022546;28;20054;-69
2023/08/19 04:09:55;;;;;;;7.38;2.72;;;;;;;;;;5022638;28;20052;-70
2023/08/19 04:12:24;;;;;;;7.30;3.22;;;;;;;;;;5022507;28;20076;-69
2023/08/19 04:14:52;;;;;;;7.60;2.90;;;;;;;;;;5018266;28;20099;-71
2023/08/19 04:17:22;;;;;;;4.35;2.72;;;;;;;;;;5022192;28;20107;-68
2023/08/19 04:19:51;;;;;;;5.07;3.10;;;;;;;;;;5018393;28;20045;-71
2023/08/19 04:22:20;;;;;;;7.65;3.03;;;;;;;;;;5017624;28;20041;-69
2023/08/19 04:24:51;;;;;;;4.30;2.92;;;;;;;;;;5022098;28;20396;-68
2023/08/19 04:27:19;;;;;;;4.45;2.80;;;;;;;;;;5021536;28;20041;-69
2023/08/19 04:29:47;;;;;;;7.97;3.05;;;;;;;;;;5025371;28;20045;-69
2023/08/19 04:32:16;;;;;;;8.45;2.97;;;;;;;;;;5026160;28;20103;-68
2023/08/19 04:34:45;;;;;;;7.57;3.03;;;;;;;;;;5020597;28;20133;-69
2023/08/19 04:37:14;;;;;;;3.78;2.47;;;;;;;;;;5023670;28;20069;-69
2023/08/19 04:39:42;;;;;;;6.47;3.40;;;;;;;;;;5024285;28;20065;-69
2023/08/19 04:42:10;;;;;;;4.43;2.95;;;;;;;;;;5026487;28;20046;-70
2023/08/19 04:44:39;;;;;;;4.57;2.88;;;;;;;;;;5022402;28;20078;-70
2023/08/19 04:47:09;;;;;;;4.07;2.70;;;;;;;;;;5021217;28;20053;-70
2023/08/19 04:49:37;;;;;;;3.40;2.45;;;;;;;;;;5021454;28;20053;-70
2023/08/19 04:52:07;;;;;;;4.07;2.92;;;;;;;;;;5019859;28;20049;-69
2023/08/19 04:54:36;;;;;;;5.63;3.05;;;;;;;;;;5021697;28;20073;-69
2023/08/19 04:57:04;;;;;;;8.77;2.88;;;;;;;;;;5021207;28;20577;-69
2023/08/19 04:59:33;;;;;;;4.90;2.58;;;;;;;;;;5016687;28;20465;-72
2023/08/19 05:02:01;;;;;;;5.75;2.90;;;;;;;;;;5021101;28;20061;-69
2023/08/19 05:04:30;;;;;;;5.03;2.83;;;;;;;;;;5021476;28;20085;-70
2023/08/19 05:06:58;;;;;;;5.38;2.72;;;;;;;;;;5020721;28;20137;-71
2023/08/19 05:09:28;;;;;;;6.40;2.55;;;;;;;;;;5023590;28;20485;-72
2023/08/19 05:11:56;;;;;;;6.78;3.58;;;;;;;;;;5016425;28;20077;-68
2023/08/19 05:14:25;;;;;;;5.15;2.72;;;;;;;;;;5022650;28;20065;-69
2023/08/19 05:16:54;;;;;;;7.93;2.75;;;;;;;;;;5021953;28;20065;-69
2023/08/19 05:19:22;;;;;;;5.32;2.53;;;;;;;;;;5022334;28;20510;-68
2023/08/19 05:21:51;;;;;;;3.20;2.53;;;;;;;;;;5019514;28;20414;-70
2023/08/19 05:24:20;;;;;;;5.05;2.72;;;;;;;;;;5019184;28;20124;-69
2023/08/19 05:26:51;;;;;;;6.38;2.55;;;;;;;;;;5022088;28;20054;-68
2023/08/19 05:29:19;;;;;;;4.75;2.45;;;;;;;;;;5015329;28;20075;-69
2023/08/19 05:31:48;;;;;;;4.30;2.92;;;;;;;;;;5020991;28;20140;-69
2023/08/19 05:34:16;;;;;;;5.43;2.90;;;;;;;;;;5014530;28;20574;-69
2023/08/19 05:36:45;;;;;;;4.25;2.42;;;;;;;;;;5017356;28;20085;-69
2023/08/19 05:39:13;;;;;;;3.90;2.38;;;;;;;;;;5021563;28;20127;-67
2023/08/19 05:41:41;;;;;;;4.05;2.30;;;;;;;;;;5018237;28;20156;-67
2023/08/19 05:44:11;;;;;;;10.27;3.15;;;;;;;;;;5020840;28;20134;-67
2023/08/19 05:46:43;;;;;;;5.65;2.92;;;;;;;;;;5020375;28;20052;-70
2023/08/19 05:49:11;;;;;;;4.07;2.70;;;;;;;;;;5015286;28;20108;-69
2023/08/19 05:51:40;;;;;;;4.82;2.70;;;;;;;;;;5018098;28;20050;-68
2023/08/19 05:54:08;;;;;;;4.35;2.88;;;;;;;;;;5021501;28;20057;-68
2023/08/19 05:56:36;;;;;;;5.22;2.70;;;;;;;;;;5018883;28;20457;-68
2023/08/19 05:59:05;;;;;;;5.00;3.08;;;;;;;;;;5021734;28;20539;-68
2023/08/19 06:01:35;;;;;;;3.75;2.60;;;;;;;;;;5017276;28;20042;-67
2023/08/19 06:04:03;;;;;;;7.80;3.40;;;;;;;;;;5019186;28;20120;-68
2023/08/19 06:06:32;;;;;;;5.50;2.58;;;;;;;;;;5020921;28;20215;-68
2023/08/19 06:09:00;;;;;;;5.32;2.50;;;;;;;;;;5016003;28;20045;-68
2023/08/19 06:11:28;;;;;;;5.28;2.75;;;;;;;;;;5019058;28;20568;-67
2023/08/19 06:13:58;;;;;;;4.90;2.40;;;;;;;;;;5021664;28;20053;-67
2023/08/19 06:16:26;;;;;;;3.80;2.65;;;;;;;;;;5019301;28;20050;-68
2023/08/19 06:18:56;;;;;;;4.93;2.90;;;;;;;;;;5021225;28;20049;-67
2023/08/19 06:21:25;;;;;;;8.07;3.35;;;;;;;;;;5020386;28;20081;-69
2023/08/19 06:23:53;;;;;;;4.10;2.67;;;;;;;;;;5018702;28;20096;-68
2023/08/19 06:26:21;;;;;;;6.35;2.83;;;;;;;;;;5018460;28;20497;-67
2023/08/19 06:28:50;;;;;;;5.55;2.90;;;;;;;;;;5018619;28;20100;-67
2023/08/19 06:31:19;;;;;;;7.05;2.75;;;;;;;;;;5015921;28;20108;-67
2023/08/19 06:33:49;;;;;;;6.05;3.08;;;;;;;;;;5017823;28;20128;-68
2023/08/19 06:36:22;;;;;;;5.22;2.85;;;;;;;;;;5018740;28;20499;-68
2023/08/19 06:38:51;;;;;;;8.38;3.05;;;;;;;;;;5019654;28;20077;-68
2023/08/19 06:41:20;;;;;;;5.00;3.22;;;;;;;;;;5018577;28;20123;-67
2023/08/19 06:43:49;;;;;;;5.70;3.00;;;;;;;;;;5016427;28;20076;-68
2023/08/19 06:46:17;;;;;;;3.92;2.58;;;;;;;;;;5017750;28;20061;-67
2023/08/19 06:48:46;;;;;;;5.75;2.80;;;;;;;;;;5017298;28;20095;-67
2023/08/19 06:51:14;;;;;;;8.25;3.42;;;;;;;;;;5011894;28;20557;-67
2023/08/19 06:53:44;;;;;;;8.15;3.50;;;;;;;;;;5016464;28;20132;-67
2023/08/19 06:56:19;;;;;;;5.75;3.15;;;;;;;;;;5022847;28;20099;-67
2023/08/19 06:58:52;;;;;;;6.25;2.92;;;;;;;;;;5017776;28;20056;-67
2023/08/19 07:01:23;;;;;;;3.80;2.72;;;;;;;;;;5021989;28;20083;-67
2023/08/19 07:03:53;;;;;;;5.97;3.10;;;;;;;;;;5019922;28;20073;-67
2023/08/19 07:06:23;;;;;;;6.90;2.90;;;;;;;;;;5015985;28;20426;-68
2023/08/19 07:08:53;;;;;;;9.80;3.30;;;;;;;;;;5013838;28;20103;-69
2023/08/19 07:11:21;;;;;;;6.18;2.65;;;;;;;;;;5021157;28;20046;-68
2023/08/19 07:13:50;;;;;;;8.85;3.20;;;;;;;;;;5017425;28;20126;-69
2023/08/19 07:16:19;;;;;;;6.38;2.83;;;;;;;;;;5021869;28;20099;-67
2023/08/19 07:18:49;;;;;;;5.07;3.08;;;;;;;;;;5020914;28;20152;-67
2023/08/19 07:21:18;;;;;;;6.40;2.95;;;;;;;;;;5020315;28;20099;-67
2023/08/19 07:23:47;;;;;;;6.43;4.20;;;;;;;;;;5021313;28;20042;-70
2023/08/19 07:26:18;;;;;;;9.52;3.17;;;;;;;;;;5022098;28;20474;-68
2023/08/19 07:28:47;;;;;;;3.58;2.83;;;;;;;;;;5017678;28;20495;-69
2023/08/19 07:31:16;;;;;;;7.35;3.22;;;;;;;;;;5021764;28;20537;-67
2023/08/19 07:33:45;;;;;;;10.05;2.65;;;;;;;;;;5015211;28;20041;-67
2023/08/19 07:36:13;;;;;;;8.48;2.88;;;;;;;;;;5014340;28;20057;-67
2023/08/19 07:38:42;;;;;;;5.30;2.50;;;;;;;;;;5016222;28;20053;-67
2023/08/19 07:41:10;;;;;;;20.17;3.72;;;;;;;;;;5018640;28;20048;-68
2023/08/19 07:43:41;;;;;;;8.13;2.80;;;;;;;;;;5019517;28;20053;-70
2023/08/19 07:46:10;;;;;;;5.88;2.85;;;;;;;;;;5016511;28;20061;-68
2023/08/19 07:48:38;;;;;;;4.68;2.83;;;;;;;;;;5016409;28;20050;-67
2023/08/19 07:51:09;;;;;;;3.70;2.60;;;;;;;;;;5015682;28;20053;-67
2023/08/19 07:53:37;;;;;;;5.75;3.05;;;;;;;;;;5019967;28;20045;-65
2023/08/19 07:56:06;;;;;;;6.28;2.47;;;;;;;;;;5020855;28;20119;-65
2023/08/19 07:58:34;;;;;;;5.15;2.75;;;;;;;;;;5019111;28;20049;-65
2023/08/19 08:01:05;;;;;;;11.10;2.85;;;;;;;;;;5014732;28;20077;-65
2023/08/19 08:03:33;;;;;;;4.40;2.65;;;;;;;;;;5020931;28;20061;-64
2023/08/19 08:06:02;;;;;;;4.30;2.70;;;;;;;;;;5021358;28;20112;-66
2023/08/19 08:08:30;;;;;;;7.25;2.85;;;;;;;;;;5021933;28;20152;-72
2023/08/19 08:10:59;;;;;;;6.25;2.80;;;;;;;;;;5019937;28;20140;-67
2023/08/19 08:13:28;;;;;;;6.03;2.60;;;;;;;;;;5018705;28;20234;-64
2023/08/19 08:15:56;;;;;;;3.50;2.50;;;;;;;;;;5022540;28;20080;-64
2023/08/19 08:18:26;;;;;;;4.70;2.17;;;;;;;;;;5020586;28;20179;-65
2023/08/19 08:20:55;;;;;;;8.32;2.90;;;;;;;;;;5022954;28;20053;-71
2023/08/19 08:23:23;;;;;;;4.57;2.55;;;;;;;;;;5022159;28;20045;-66
2023/08/19 08:25:54;;;;;;;5.05;2.28;;;;;;;;;;5021992;28;20314;-63
2023/08/19 08:28:23;;;;;;;6.32;2.75;;;;;;;;;;5023997;28;20077;-65
2023/08/19 08:30:51;;;;;;;10.98;2.92;;;;;;;;;;5022352;28;20050;-65
2023/08/19 08:33:20;;;;;;;10.95;2.40;;;;;;;;;;5021455;28;20303;-66
2023/08/19 08:35:50;;;;;;;4.78;2.55;;;;;;;;;;5019222;28;20049;-63
2023/08/19 08:38:18;;;;;;;8.02;2.97;;;;;;;;;;5015774;28;20144;-66
2023/08/19 08:40:47;;;;;;;5.47;2.78;;;;;;;;;;5018240;28;20053;-66
2023/08/19 08:43:15;;;;;;;6.15;2.90;;;;;;;;;;5017570;28;20077;-66
2023/08/19 08:45:44;;;;;;;4.68;2.60;;;;;;;;;;5016533;28;20046;-66
2023/08/19 08:48:12;;;;;;;4.22;2.50;;;;;;;;;;5015862;28;21855;-67
2023/08/19 08:50:43;;;;;;;4.40;2.60;;;;;;;;;;5020385;28;20052;-68
2023/08/19 08:53:14;;;;;;;8.73;3.35;;;;;;;;;;5016727;28;20209;-67
2023/08/19 08:55:42;;;;;;;2.95;2.20;;;;;;;;;;5018825;28;20065;-69
2023/08/19 08:58:11;;;;;;;5.38;2.60;;;;;;;;;;5020536;28;20100;-69
2023/08/19 09:00:40;;;;;;;4.13;2.33;;;;;;;;;;5024134;28;20053;-67
2023/08/19 09:03:09;;;;;;;6.32;2.35;;;;;;;;;;5020473;28;20115;-66
2023/08/19 09:05:40;;;;;;;6.63;2.80;;;;;;;;;;5023411;28;20155;-69
2023/08/19 09:08:13;;;;;;;5.75;2.60;;;;;;;;;;5024209;28;20045;-66
2023/08/19 09:10:44;;;;;;;3.40;2.33;;;;;;;;;;5026291;28;20073;-65
2023/08/19 09:13:14;;;;;;;5.05;2.83;;;;;;;;;;5026580;28;20513;-66
2023/08/19 09:15:43;;;;;;;5.30;3.20;;;;;;;;;;5028054;28;20235;-65
2023/08/19 09:18:11;;;;;;;4.10;2.60;;;;;;;;;;5023894;28;20336;-66
2023/08/19 09:20:41;;;;;;;4.30;2.28;;;;;;;;;;5028206;28;20357;-65
2023/08/19 09:23:09;;;;;;;3.88;2.50;;;;;;;;;;5024727;28;20122;-66
2023/08/19 09:25:39;;;;;;;4.20;2.33;;;;;;;;;;5018092;28;20514;-68
2023/08/19 09:28:08;;;;;;;3.58;2.40;;;;;;;;;;5021170;28;20041;-68
2023/08/19 09:30:37;;;;;;;3.35;2.38;;;;;;;;;;5024281;28;20053;-66
2023/08/19 09:33:06;;;;;;;6.75;2.30;;;;;;;;;;5023445;28;20057;-66
2023/08/19 09:35:37;;;;;;;4.20;2.08;;;;;;;;;;5021487;28;20051;-69
2023/08/19 09:38:26;;;;;;;5.57;2.38;;;;;;;;;;5017048;28;20498;-66
2023/08/19 09:41:02;;;;;;;3.65;2.40;;;;;;;;;;5016664;28;20071;-67
2023/08/19 09:43:32;;;;;;;8.90;2.88;;;;;;;;;;5020228;28;20146;-66
2023/08/19 09:46:01;;;;;;;4.97;2.55;;;;;;;;;;5020267;28;20489;-70
2023/08/19 09:48:29;;;;;;;3.85;2.20;;;;;;;;;;5021475;28;20087;-67
2023/08/19 09:50:58;;;;;;;5.13;2.83;;;;;;;;;;5023522;28;20099;-70
2023/08/19 09:53:29;;;;;;;5.20;2.30;;;;;;;;;;5017120;28;20507;-69
2023/08/19 09:55:57;;;;;;;4.55;2.20;;;;;;;;;;5017418;28;20385;-67
2023/08/19 09:58:28;;;;;;;3.55;2.40;;;;;;;;;;5018993;28;20054;-68
2023/08/19 10:00:58;;;;;;;2.80;1.85;;;;;;;;;;5020623;28;20081;-69
2023/08/19 10:03:27;;;;;;;5.07;2.53;;;;;;;;;;5021975;28;20049;-69
2023/08/19 10:05:56;;;;;;;3.50;2.35;;;;;;;;;;5025779;28;20049;-68
2023/08/19 10:08:26;;;;;;;5.15;2.70;;;;;;;;;;5024857;28;20459;-68
2023/08/19 10:10:54;;;;;;;4.13;2.25;;;;;;;;;;5019633;28;20497;-71
2023/08/19 10:13:23;;;;;;;2.72;2.10;;;;;;;;;;5020529;28;20107;-68
2023/08/19 10:15:52;;;;;;;6.22;2.22;;;;;;;;;;5023227;28;20049;-70
2023/08/19 10:18:24;;;;;;;7.20;2.50;;;;;;;;;;5022474;28;20540;-70
2023/08/19 10:20:54;;;;;;;4.90;2.20;;;;;;;;;;5021258;28;20053;-69
2023/08/19 10:23:22;;;;;;;6.72;2.38;;;;;;;;;;5020926;28;20178;-68
2023/08/19 10:25:51;;;;;;;3.78;2.20;;;;;;;;;;5018988;28;20080;-71
2023/08/19 10:28:24;;;;;;;4.00;2.00;;;;;;;;;;5019540;28;20078;-70
2023/08/19 10:31:06;;;;;;;4.25;2.30;;;;;;;;;;5021368;28;20076;-69
2023/08/19 10:33:41;;;;;;;5.30;2.17;;;;;;;;;;5014364;28;20184;-71
2023/08/19 10:36:10;;;;;;;4.38;2.22;;;;;;;;;;5024863;28;20080;-71
2023/08/19 10:38:43;;;;;;;6.60;1.90;;;;;;;;;;5022033;28;20588;-72
2023/08/19 10:41:24;;;;;;;5.35;2.58;;;;;;;;;;5013037;28;20567;-71
2023/08/19 10:43:56;;;;;;;3.75;2.20;;;;;;;;;;5021713;28;20045;-71
2023/08/19 10:46:29;;;;;;;7.03;2.40;;;;;;;;;;5021319;28;20103;-71
2023/08/19 10:48:59;;;;;;;4.50;2.15;;;;;;;;;;5021288;28;20057;-77
2023/08/19 10:51:50;;;;;;;2.58;1.70;;;;;;;;;;5021496;28;20045;-73
2023/08/19 10:54:26;;;;;;;2.97;2.25;;;;;;;;;;5022393;28;20038;-76
2023/08/19 10:57:05;;;;;;;3.13;2.38;;;;;;;;;;5018914;28;20128;-74
2023/08/19 10:59:35;;;;;;;5.45;1.85;;;;;;;;;;5020075;28;20049;-73
2023/08/19 11:02:04;;;;;;;4.53;2.15;;;;;;;;;;5023458;28;20049;-76
2023/08/19 11:04:34;;;;;;;6.10;2.55;;;;;;;;;;5020942;28;20144;-71
2023/08/19 11:07:04;;;;;;;3.33;2.25;;;;;;;;;;5023607;28;20049;-72
2023/08/19 11:09:33;;;;;;;3.63;2.60;;;;;;;;;;5023058;28;20045;-71
2023/08/19 11:12:01;;;;;;;5.28;2.30;;;;;;;;;;5023769;28;20077;-71
2023/08/19 11:14:31;;;;;;;2.83;1.80;;;;;;;;;;5021605;28;20137;-73
2023/08/19 11:16:59;;;;;;;3.33;2.10;;;;;;;;;;5020392;28;20053;-72
2023/08/19 11:19:30;;;;;;;3.85;2.05;;;;;;;;;;5015958;28;20546;-71
2023/08/19 11:22:00;;;;;;;4.93;2.40;;;;;;;;;;5018399;28;20057;-72
2023/08/19 11:24:31;;;;;;;3.17;2.13;;;;;;;;;;5019754;28;20123;-71
2023/08/19 11:27:00;;;;;;;6.10;2.78;;;;;;;;;;5018604;28;20056;-73
2023/08/19 11:29:29;;;;;;;3.90;1.90;;;;;;;;;;5017933;28;20042;-77
2023/08/19 11:31:57;;;;;;;4.03;1.90;;;;;;;;;;5018078;28;20103;-72
2023/08/19 11:34:28;;;;;;;3.08;2.20;;;;;;;;;;5015934;28;20059;-74
2023/08/19 11:36:57;;;;;;;3.88;2.00;;;;;;;;;;5011386;28;20554;-72
2023/08/19 11:39:30;;;;;;;4.32;1.90;;;;;;;;;;5019655;28;20037;-72
2023/08/19 11:41:59;;;;;;;3.37;2.00;;;;;;;;;;5016553;28;20065;-71
2023/08/19 11:44:27;;;;;;;3.70;2.08;;;;;;;;;;5017871;28;20057;-72
2023/08/19 11:46:56;;;;;;;3.53;2.13;;;;;;;;;;5020866;28;20041;-76
2023/08/19 11:49:29;;;;;;;3.00;2.17;;;;;;;;;;5022115;28;20119;-72
2023/08/19 11:51:58;;;;;;;2.33;1.90;;;;;;;;;;5019528;28;20156;-74
2023/08/19 11:54:28;;;;;;;3.60;1.92;;;;;;;;;;5019458;28;20111;-70
2023/08/19 11:56:59;;;;;;;5.82;2.50;;;;;;;;;;5018201;28;20565;-71
2023/08/19 11:59:31;;;;;;;4.63;1.77;;;;;;;;;;5020614;28;20261;-73
2023/08/19 12:02:04;;;;;;;4.63;1.92;;;;;;;;;;5019928;28;20583;-74
2023/08/19 12:04:33;;;;;;;2.37;1.70;;;;;;;;;;5019819;28;20053;-75
2023/08/19 12:07:04;;;;;;;6.25;2.85;;;;;;;;;;5021475;28;20450;-72
2023/08/19 12:09:36;;;;;;;2.15;1.70;;;;;;;;;;5018303;28;20057;-72
2023/08/19 12:12:08;;;;;;;2.38;1.50;;;;;;;;;;5015625;28;20049;-73
2023/08/19 12:14:37;;;;;;;3.05;1.60;;;;;;;;;;5019072;28;20514;-71
2023/08/19 12:17:06;;;;;;;2.72;2.00;;;;;;;;;;5018483;28;20045;-76
2023/08/19 12:19:35;;;;;;;3.35;1.90;;;;;;;;;;5022301;28;20418;-74
2023/08/19 12:22:04;;;;;;;5.47;2.17;;;;;;;;;;5018934;28;20050;-72
2023/08/19 12:24:34;;;;;;;5.55;2.17;;;;;;;;;;5021467;28;20550;-72
2023/08/19 12:27:03;;;;;;;2.95;2.00;;;;;;;;;;5014378;28;20146;-71
2023/08/19 12:29:31;;;;;;;3.60;1.90;;;;;;;;;;5018351;28;20050;-70
2023/08/19 12:31:59;;;;;;;2.40;1.95;;;;;;;;;;5015213;28;20049;-71
2023/08/19 12:34:28;;;;;;;3.92;2.05;;;;;;;;;;5019434;28;20068;-72
2023/08/19 12:36:56;;;;;;;2.22;1.85;;;;;;;;;;5015719;28;20075;-76
2023/08/19 12:39:27;;;;;;;4.00;2.38;;;;;;;;;;5017426;28;20053;-72
2023/08/19 12:41:58;;;;;;;2.38;1.98;;;;;;;;;;5021084;28;20045;-71
2023/08/19 12:44:26;;;;;;;4.70;1.90;;;;;;;;;;5018104;28;20045;-74
2023/08/19 12:46:54;;;;;;;2.67;1.52;;;;;;;;;;5020392;28;20133;-74
2023/08/19 12:49:23;;;;;;;3.60;1.85;;;;;;;;;;5024395;28;20057;-74
2023/08/19 12:51:51;;;;;;;3.03;1.90;;;;;;;;;;5026908;28;20472;-71
2023/08/19 12:54:20;;;;;;;4.88;1.70;;;;;;;;;;5023063;28;20048;-72
2023/08/19 12:56:48;;;;;;;2.65;1.63;;;;;;;;;;5021501;28;20069;-72
2023/08/19 12:59:18;;;;;;;2.92;1.90;;;;;;;;;;5021065;28;20053;-73
2023/08/19 13:01:46;;;;;;;2.67;1.80;;;;;;;;;;5024236;28;20554;-70
2023/08/19 13:04:15;;;;;;;3.35;1.70;;;;;;;;;;5017387;28;20102;-72
2023/08/19 13:06:46;;;;;;;4.45;1.75;;;;;;;;;;5021617;28;20421;-72
2023/08/19 13:09:14;;;;;;;3.58;1.48;;;;;;;;;;5021226;28;20050;-72
2023/08/19 13:11:43;;;;;;;4.53;1.70;;;;;;;;;;5017419;28;20045;-76
2023/08/19 13:14:11;;;;;;;4.97;1.88;;;;;;;;;;5016546;28;20103;-76
2023/08/19 13:16:41;;;;;;;5.78;1.63;;;;;;;;;;5017137;28;20457;-73
2023/08/19 13:19:09;;;;;;;4.75;1.80;;;;;;;;;;5013635;28;20041;-70
2023/08/19 13:21:38;;;;;;;4.25;2.25;;;;;;;;;;5016658;28;20663;-71
2023/08/19 13:24:06;;;;;;;2.63;1.65;;;;;;;;;;5017997;28;20239;-71
2023/08/19 13:26:35;;;;;;;7.30;1.80;;;;;;;;;;5017862;28;20506;-71
2023/08/19 13:29:03;;;;;;;3.13;1.77;;;;;;;;;;5018456;28;20092;-73
2023/08/19 13:31:32;;;;;;;3.78;1.58;;;;;;;;;;5022518;28;20077;-71
2023/08/19 13:34:02;;;;;;;5.28;1.73;;;;;;;;;;5019479;28;20168;-71
2023/08/19 13:36:31;;;;;;;3.92;1.77;;;;;;;;;;5017497;28;20049;-72
2023/08/19 13:38:59;;;;;;;7.90;1.63;;;;;;;;;;5018312;28;20124;-73
2023/08/19 13:41:29;;;;;;;3.10;1.80;;;;;;;;;;5019962;28;20038;-72
2023/08/19 13:43:57;;;;;;;4.07;1.75;;;;;;;;;;5019599;28;20414;-74
2023/08/19 13:46:26;;;;;;;2.78;1.83;;;;;;;;;;5020352;28;20077;-72
2023/08/19 13:48:54;;;;;;;7.90;1.90;;;;;;;;;;5017253;28;20057;-71
2023/08/19 13:51:24;;;;;;;2.97;1.65;;;;;;;;;;5018205;28;20497;-70
2023/08/19 13:53:53;;;;;;;4.53;2.05;;;;;;;;;;5020451;28;20369;-70
2023/08/19 13:56:21;;;;;;;5.07;1.55;;;;;;;;;;5017114;28;20080;-74
2023/08/19 13:58:49;;;;;;;4.28;1.70;;;;;;;;;;5019936;28;20073;-71
2023/08/19 14:01:18;;;;;;;3.92;1.80;;;;;;;;;;5022818;28;20049;-71
2023/08/19 14:03:46;;;;;;;2.42;1.65;;;;;;;;;;5022668;28;20438;-72
2023/08/19 14:06:15;;;;;;;3.03;1.48;;;;;;;;;;5020095;28;20049;-70
2023/08/19 14:08:44;;;;;;;2.00;1.63;;;;;;;;;;5022716;28;20149;-70
2023/08/19 14:11:13;;;;;;;4.25;1.80;;;;;;;;;;5024319;28;20065;-70
2023/08/19 14:13:41;;;;;;;3.83;1.23;;;;;;;;;;5021056;28;20626;-70
2023/08/19 14:16:10;;;;;;;6.00;1.85;;;;;;;;;;5022621;28;20450;-69
2023/08/19 14:18:39;;;;;;;4.93;1.77;;;;;;;;;;5023510;28;20049;-70
2023/08/19 14:21:08;;;;;;;4.25;1.63;;;;;;;;;;5024571;28;20092;-68
2023/08/19 14:23:37;;;;;;;3.45;1.60;;;;;;;;;;5021473;28;20057;-71
2023/08/19 14:26:08;;;;;;;4.30;1.85;;;;;;;;;;5023921;28;20077;-71
2023/08/19 14:28:36;;;;;;;6.57;1.80;;;;;;;;;;5022259;28;20145;-71
2023/08/19 14:31:04;;;;;;;3.00;1.40;;;;;;;;;;5021541;28;20056;-70
2023/08/19 14:33:33;;;;;;;4.18;1.70;;;;;;;;;;5021299;28;20055;-75
2023/08/19 14:36:01;;;;;;;4.03;1.65;;;;;;;;;;5022289;28;20144;-69
2023/08/19 14:38:30;;;;;;;2.67;1.60;;;;;;;;;;5024709;28;20041;-70
2023/08/19 14:40:58;;;;;;;2.88;1.65;;;;;;;;;;5023094;28;20100;-72
2023/08/19 14:43:28;;;;;;;3.70;1.40;;;;;;;;;;5017769;28;20057;-72
2023/08/19 14:45:57;;;;;;;4.18;1.80;;;;;;;;;;5014433;28;20105;-71
2023/08/19 14:48:25;;;;;;;4.95;1.55;;;;;;;;;;5017219;28;20046;-70
2023/08/19 14:50:54;;;;;;;5.68;1.45;;;;;;;;;;5019608;28;20042;-70
2023/08/19 14:53:22;;;;;;;5.13;1.63;;;;;;;;;;5021351;28;20143;-70
2023/08/19 14:55:51;;;;;;;7.72;1.73;;;;;;;;;;5019504;28;20413;-71